Time;durP1;ratioP1;P1;durP2;ratioP2;P2;SDS_P1;SDS_P2;PMS_P1;PMS_P2;Temp;Humidity;BMP_temperature;BMP_pressure;BME280_temperature;BME280_humidity;BME280_pressure;Samples;Min_cycle;Max_cycle;Signal;HPM_P1;HPM_P2
2023/05/23 00:01:02;;;;;;;1999.90;999.90;;;15.60;99.90;;;;;;5054030;28;20289;-70
2023/05/23 00:03:30;;;;;;;1999.90;999.90;;;15.50;99.90;;;;;;5054242;28;20544;-70
2023/05/23 00:05:56;;;;;;;1999.90;999.90;;;15.50;99.90;;;;;;5054344;28;20256;-70
2023/05/23 00:08:21;;;;;;;1999.90;999.90;;;15.50;99.90;;;;;;5054327;28;20474;-70
2023/05/23 00:10:47;;;;;;;1999.90;999.90;;;15.50;99.90;;;;;;5054106;28;20426;-70
2023/05/23 00:13:13;;;;;;;1999.90;999.90;;;15.50;99.90;;;;;;5053947;28;20175;-70
2023/05/23 00:15:42;;;;;;;1999.90;999.90;;;15.50;99.90;;;;;;5054351;28;20179;-70
2023/05/23 00:18:09;;;;;;;1999.90;999.90;;;15.40;99.90;;;;;;5053729;28;20414;-70
2023/05/23 00:20:36;;;;;;;1999.90;999.90;;;15.40;99.90;;;;;;5054066;28;20431;-70
2023/05/23 00:23:03;;;;;;;1999.90;999.90;;;15.40;99.90;;;;;;5053697;28;20536;-70
2023/05/23 00:25:33;;;;;;;1999.90;999.90;;;15.40;99.90;;;;;;5053885;28;20416;-70
2023/05/23 00:28:05;;;;;;;1999.90;999.90;;;15.40;99.90;;;;;;5054152;28;20750;-70
2023/05/23 00:30:31;;;;;;;1999.90;999.90;;;15.60;99.90;;;;;;5053921;28;20562;-70
2023/05/23 00:32:57;;;;;;;1999.90;999.90;;;15.50;99.90;;;;;;5053835;28;20406;-70
2023/05/23 00:35:23;;;;;;;1999.90;999.90;;;15.50;99.90;;;;;;5053795;28;20402;-70
2023/05/23 00:37:50;;;;;;;1999.90;999.90;;;15.50;99.90;;;;;;5053679;28;20439;-70
2023/05/23 00:40:19;;;;;;;1999.90;999.90;;;15.60;99.90;;;;;;5053496;28;20207;-70
2023/05/23 00:42:45;;;;;;;1999.90;999.90;;;15.50;99.90;;;;;;5053345;28;20963;-70
2023/05/23 00:45:11;;;;;;;1999.90;999.90;;;15.40;99.90;;;;;;5053598;28;20464;-70
2023/05/23 00:47:39;;;;;;;1999.90;999.90;;;15.40;99.90;;;;;;5053539;28;20400;-70
2023/05/23 00:50:07;;;;;;;1999.90;999.90;;;15.30;99.90;;;;;;5053430;28;20417;-70
2023/05/23 00:52:33;;;;;;;1999.90;999.90;;;15.30;99.90;;;;;;5052942;28;20913;-70
2023/05/23 00:54:59;;;;;;;1999.90;999.90;;;15.30;99.90;;;;;;5053499;28;20550;-70
2023/05/23 00:57:24;;;;;;;1999.90;999.90;;;15.20;99.90;;;;;;5053377;28;20404;-70
2023/05/23 00:59:51;;;;;;;1999.90;999.90;;;15.20;99.90;;;;;;5053205;28;20577;-70
2023/05/23 01:02:16;;;;;;;1999.90;999.90;;;15.20;99.90;;;;;;5053094;28;20662;-70
2023/05/23 01:04:43;;;;;;;1999.90;999.90;;;15.30;99.90;;;;;;5053154;28;20545;-70
2023/05/23 01:07:09;;;;;;;1999.90;999.90;;;15.40;99.90;;;;;;5053131;28;20165;-70
2023/05/23 01:09:35;;;;;;;1999.90;999.90;;;15.50;99.90;;;;;;5052996;28;20485;-70
2023/05/23 01:12:18;;;;;;;1999.90;999.90;;;15.60;99.90;;;;;;5052779;28;20401;-70
2023/05/23 01:14:55;;;;;;;1999.90;999.90;;;15.60;99.90;;;;;;5053052;28;20545;-70
2023/05/23 01:17:30;;;;;;;1999.90;999.90;;;15.70;99.90;;;;;;5053028;28;20419;-70
2023/05/23 01:20:04;;;;;;;1999.90;999.90;;;15.70;99.90;;;;;;5052872;28;20519;-70
2023/05/23 01:23:01;;;;;;;1999.90;999.90;;;15.80;99.90;;;;;;5052642;28;20906;-70
2023/05/23 01:26:04;;;;;;;1999.90;999.90;;;15.80;99.90;;;;;;5052901;28;20501;-70
2023/05/23 01:28:36;;;;;;;1999.90;999.90;;;15.80;99.90;;;;;;5052264;28;20455;-70
2023/05/23 01:31:03;;;;;;;1999.90;999.90;;;15.80;99.90;;;;;;5052448;28;20406;-70
2023/05/23 01:33:30;;;;;;;1999.90;999.90;;;15.80;99.90;;;;;;5052692;28;20409;-70
2023/05/23 01:35:59;;;;;;;1999.90;999.90;;;15.80;99.90;;;;;;5052556;28;20401;-70
2023/05/23 01:38:24;;;;;;;1999.90;999.90;;;15.90;99.90;;;;;;5052617;28;20397;-70
2023/05/23 01:40:50;;;;;;;1999.90;999.90;;;15.80;99.90;;;;;;5052250;28;20791;-70
2023/05/23 01:43:16;;;;;;;1999.90;999.90;;;15.80;99.90;;;;;;5052483;28;20732;-69
2023/05/23 01:45:42;;;;;;;1999.90;999.90;;;15.70;99.90;;;;;;5052343;28;20203;-70
2023/05/23 01:48:10;;;;;;;1999.90;999.90;;;15.50;99.90;;;;;;5052445;28;20222;-69
2023/05/23 01:50:36;;;;;;;1999.90;999.90;;;15.40;99.90;;;;;;5052241;28;20513;-69
2023/05/23 01:53:03;;;;;;;1999.90;999.90;;;15.30;99.90;;;;;;5052008;28;20497;-69
2023/05/23 01:55:30;;;;;;;1999.90;999.90;;;15.30;99.90;;;;;;5052298;28;20417;-69
2023/05/23 01:57:56;;;;;;;1999.90;999.90;;;15.20;99.90;;;;;;5052373;28;20441;-69
2023/05/23 02:00:22;;;;;;;1999.90;999.90;;;15.30;99.90;;;;;;5052096;28;21231;-69
2023/05/23 02:02:48;;;;;;;1999.90;999.90;;;15.30;99.90;;;;;;5051843;28;20455;-70
2023/05/23 02:05:13;;;;;;;1999.90;999.90;;;15.30;99.90;;;;;;5052120;28;20195;-69
2023/05/23 02:07:39;;;;;;;1999.90;999.90;;;15.30;99.90;;;;;;5052043;28;20226;-69
2023/05/23 02:10:07;;;;;;;1999.90;999.90;;;15.30;99.90;;;;;;5052356;28;20194;-69
2023/05/23 02:12:33;;;;;;;1999.90;999.90;;;15.20;99.90;;;;;;5051814;28;20176;-70
2023/05/23 02:14:59;;;;;;;1999.90;999.90;;;15.20;99.90;;;;;;5052008;28;20404;-69
2023/05/23 02:17:25;;;;;;;1999.90;999.90;;;15.20;99.90;;;;;;5051987;28;20174;-70
2023/05/23 02:19:50;;;;;;;1999.90;999.90;;;15.20;99.90;;;;;;5051832;28;20196;-69
2023/05/23 02:22:16;;;;;;;1999.90;999.90;;;15.20;99.90;;;;;;5051644;28;20759;-69
2023/05/23 02:24:41;;;;;;;1999.90;999.90;;;15.20;99.90;;;;;;5051839;28;20198;-69
2023/05/23 02:27:07;;;;;;;1999.90;999.90;;;15.30;99.90;;;;;;5051896;28;20168;-70
2023/05/23 02:29:33;;;;;;;1999.90;999.90;;;15.30;99.90;;;;;;5051801;28;20195;-69
2023/05/23 02:31:58;;;;;;;1999.90;999.90;;;15.30;99.90;;;;;;5051589;28;20168;-70
2023/05/23 02:34:25;;;;;;;1999.90;999.90;;;15.30;99.90;;;;;;5051804;28;20175;-69
2023/05/23 02:36:50;;;;;;;1999.90;999.90;;;15.30;99.90;;;;;;5051729;28;20181;-70
2023/05/23 02:39:16;;;;;;;1999.90;999.90;;;15.30;99.90;;;;;;5051877;28;20530;-69
2023/05/23 02:41:42;;;;;;;1999.90;999.90;;;15.40;99.90;;;;;;5055821;28;20175;-70
2023/05/23 02:44:08;;;;;;;1999.90;999.90;;;15.40;99.90;;;;;;5055810;28;20459;-70
2023/05/23 02:46:33;;;;;;;1999.90;999.90;;;15.50;99.90;;;;;;5055910;28;20652;-70
2023/05/23 02:48:59;;;;;;;1999.90;999.90;;;15.40;99.90;;;;;;5055680;28;20708;-70
2023/05/23 02:51:25;;;;;;;1999.90;999.90;;;15.40;99.90;;;;;;5055519;28;20174;-70
2023/05/23 02:53:50;;;;;;;1999.90;999.90;;;15.50;99.90;;;;;;5055680;28;20244;-69
2023/05/23 02:56:16;;;;;;;1999.90;999.90;;;15.30;99.90;;;;;;5055817;28;20174;-69
2023/05/23 02:58:41;;;;;;;1999.90;999.90;;;15.30;99.90;;;;;;5056023;28;20598;-71
2023/05/23 03:01:07;;;;;;;1999.90;999.90;;;15.30;99.90;;;;;;5055209;28;20615;-69
2023/05/23 03:03:33;;;;;;;1999.90;999.90;;;15.30;99.90;;;;;;5055460;28;20277;-69
2023/05/23 03:06:03;;;;;;;1999.90;999.90;;;15.20;99.90;;;;;;5055371;28;20195;-70
2023/05/23 03:08:29;;;;;;;1999.90;999.90;;;15.20;99.90;;;;;;5055404;28;20467;-70
2023/05/23 03:10:55;;;;;;;1999.90;999.90;;;15.20;99.90;;;;;;5055237;28;20433;-70
2023/05/23 03:13:21;;;;;;;1999.90;999.90;;;15.40;99.90;;;;;;5055304;28;20721;-70
2023/05/23 03:15:46;;;;;;;1999.90;999.90;;;15.40;99.90;;;;;;5055302;28;20636;-70
2023/05/23 03:18:12;;;;;;;1999.90;999.90;;;15.40;99.90;;;;;;5055181;28;20474;-70
2023/05/23 03:20:37;;;;;;;1999.90;999.90;;;15.40;99.90;;;;;;5055064;28;20210;-70
2023/05/23 03:23:03;;;;;;;1999.90;999.90;;;15.40;99.90;;;;;;5054830;28;20166;-69
2023/05/23 03:25:29;;;;;;;1999.90;999.90;;;15.40;99.90;;;;;;5055099;28;20655;-70
2023/05/23 03:27:54;;;;;;;1999.90;999.90;;;15.40;99.90;;;;;;5055140;28;20223;-70
2023/05/23 03:30:20;;;;;;;1999.90;999.90;;;15.30;99.90;;;;;;5055074;28;20215;-69
2023/05/23 03:32:46;;;;;;;1999.90;999.90;;;15.20;99.90;;;;;;5054587;28;20167;-70
2023/05/23 03:35:12;;;;;;;1999.90;999.90;;;15.10;99.90;;;;;;5054856;28;20420;-70
2023/05/23 03:37:37;;;;;;;1999.90;999.90;;;15.10;99.90;;;;;;5054860;28;20185;-70
2023/05/23 03:40:04;;;;;;;1999.90;999.90;;;15.10;99.90;;;;;;5054650;28;20221;-70
2023/05/23 03:42:30;;;;;;;1999.90;999.90;;;15.00;99.90;;;;;;5054710;28;20186;-70
2023/05/23 03:44:55;;;;;;;1999.90;999.90;;;15.10;99.90;;;;;;5054674;28;20897;-70
2023/05/23 03:47:23;;;;;;;1999.90;999.90;;;15.00;99.90;;;;;;5054634;28;20171;-69
2023/05/23 03:49:48;;;;;;;1999.90;999.90;;;15.00;99.90;;;;;;5054577;28;20186;-69
2023/05/23 03:52:14;;;;;;;1999.90;999.90;;;14.90;99.90;;;;;;5053570;28;21015;-70
2023/05/23 03:54:40;;;;;;;1999.90;999.90;;;14.90;99.90;;;;;;5054608;28;20175;-70
2023/05/23 03:57:06;;;;;;;1999.90;999.90;;;14.90;99.90;;;;;;5054654;28;20187;-70
2023/05/23 03:59:31;;;;;;;1999.90;999.90;;;14.90;99.90;;;;;;5054427;28;20435;-70
2023/05/23 04:01:58;;;;;;;1999.90;999.90;;;14.90;99.90;;;;;;5054154;28;20174;-70
2023/05/23 04:04:24;;;;;;;1999.90;999.90;;;14.80;99.90;;;;;;5054332;28;20205;-70
2023/05/23 04:06:50;;;;;;;1999.90;999.90;;;14.80;99.90;;;;;;5054534;28;20419;-70
2023/05/23 04:09:16;;;;;;;1999.90;999.90;;;14.70;99.90;;;;;;5054137;28;20915;-70
2023/05/23 04:11:42;;;;;;;1999.90;999.90;;;14.70;99.90;;;;;;5054084;28;20201;-70
2023/05/23 04:14:08;;;;;;;1999.90;999.90;;;14.60;99.90;;;;;;5054166;28;20419;-71
2023/05/23 04:16:36;;;;;;;1999.90;999.90;;;14.70;99.90;;;;;;5054159;28;20431;-71
2023/05/23 04:19:03;;;;;;;1999.90;999.90;;;14.60;99.90;;;;;;5054040;28;20170;-71
2023/05/23 04:21:29;;;;;;;1999.90;999.90;;;14.70;99.90;;;;;;5053974;28;20452;-71
2023/05/23 04:23:55;;;;;;;1999.90;999.90;;;14.70;99.90;;;;;;5053913;28;20461;-69
2023/05/23 04:26:20;;;;;;;1999.90;999.90;;;14.70;99.90;;;;;;5054094;28;20433;-70
2023/05/23 04:28:47;;;;;;;1999.90;999.90;;;14.70;99.90;;;;;;5053961;28;20793;-69
2023/05/23 04:31:13;;;;;;;1999.90;999.90;;;14.70;99.90;;;;;;5053433;28;20194;-70
2023/05/23 04:33:39;;;;;;;1999.90;999.90;;;14.80;99.90;;;;;;5053762;28;21215;-69
2023/05/23 04:36:08;;;;;;;1999.90;999.90;;;14.80;99.90;;;;;;5053801;28;20411;-70
2023/05/23 04:38:33;;;;;;;1999.90;999.90;;;14.80;99.90;;;;;;5053832;28;20177;-70
2023/05/23 04:40:59;;;;;;;1999.90;999.90;;;14.80;99.90;;;;;;5053672;28;20991;-69
2023/05/23 04:43:28;;;;;;;1999.90;999.90;;;14.90;99.90;;;;;;5053562;28;20447;-70
2023/05/23 04:45:54;;;;;;;1999.90;999.90;;;14.90;99.90;;;;;;5053465;28;20162;-70
2023/05/23 04:48:22;;;;;;;1999.90;999.90;;;14.90;99.90;;;;;;5053544;28;21047;-70
2023/05/23 04:50:49;;;;;;;1999.90;999.90;;;14.90;99.90;;;;;;5053418;28;20218;-70
2023/05/23 04:53:15;;;;;;;1999.90;999.90;;;14.80;99.90;;;;;;5053159;28;20930;-69
2023/05/23 04:55:41;;;;;;;1999.90;999.90;;;14.80;99.90;;;;;;5053412;28;20408;-70
2023/05/23 04:58:06;;;;;;;1999.90;999.90;;;14.80;99.90;;;;;;5053379;28;20534;-69
2023/05/23 05:00:32;;;;;;;1999.90;999.90;;;14.80;99.90;;;;;;5053127;28;20189;-70
2023/05/23 05:02:57;;;;;;;1999.90;999.90;;;14.80;99.90;;;;;;5052149;28;20533;-70
2023/05/23 05:05:23;;;;;;;1999.90;999.90;;;14.70;99.90;;;;;;5053180;28;20208;-70
2023/05/23 05:07:49;;;;;;;1999.90;999.90;;;14.70;99.90;;;;;;5053495;28;20171;-71
2023/05/23 05:10:15;;;;;;;1999.90;999.90;;;14.80;99.90;;;;;;5053036;28;20179;-71
2023/05/23 05:12:44;;;;;;;1999.90;999.90;;;14.80;99.90;;;;;;5052830;28;20163;-71
2023/05/23 05:15:10;;;;;;;1999.90;999.90;;;14.80;99.90;;;;;;5052885;28;20807;-71
2023/05/23 05:17:36;;;;;;;1999.90;999.90;;;14.80;99.90;;;;;;5053035;28;20409;-71
2023/05/23 05:20:07;;;;;;;1999.90;999.90;;;14.80;99.90;;;;;;5053019;28;20457;-71
2023/05/23 05:22:42;;;;;;;1999.90;999.90;;;14.90;99.90;;;;;;5052615;28;20541;-71
2023/05/23 05:25:09;;;;;;;1999.90;999.90;;;14.90;99.90;;;;;;5052857;28;20458;-71
2023/05/23 05:27:36;;;;;;;1999.90;999.90;;;14.90;99.90;;;;;;5052726;28;20397;-71
2023/05/23 05:30:07;;;;;;;1999.90;999.90;;;14.90;99.90;;;;;;5052624;28;20456;-71
2023/05/23 05:32:33;;;;;;;1999.90;999.90;;;14.90;99.90;;;;;;5052405;28;20403;-71
2023/05/23 05:34:59;;;;;;;1999.90;999.90;;;14.90;99.90;;;;;;5052717;28;20407;-70
2023/05/23 05:37:25;;;;;;;1999.90;999.90;;;14.80;99.90;;;;;;5052744;28;20599;-70
2023/05/23 05:39:52;;;;;;;1999.90;999.90;;;14.80;99.90;;;;;;5052402;28;20449;-70
2023/05/23 05:42:18;;;;;;;1999.90;999.90;;;14.70;99.90;;;;;;5052197;28;20417;-70
2023/05/23 05:44:43;;;;;;;1999.90;999.90;;;14.70;99.90;;;;;;5052380;28;20463;-70
2023/05/23 05:47:09;;;;;;;1999.90;999.90;;;14.70;99.90;;;;;;5052463;28;20201;-70
2023/05/23 05:49:34;;;;;;;1999.90;999.90;;;14.80;99.90;;;;;;5052368;28;20724;-70
2023/05/23 05:52:00;;;;;;;1999.90;999.90;;;14.80;99.90;;;;;;5052173;28;20221;-71
2023/05/23 05:54:26;;;;;;;1999.90;999.90;;;14.80;99.90;;;;;;5052430;28;20656;-71
2023/05/23 05:56:51;;;;;;;1999.90;999.90;;;14.90;99.90;;;;;;5052229;28;20179;-71
2023/05/23 05:59:17;;;;;;;1999.90;999.90;;;14.90;99.90;;;;;;5052129;28;20726;-70
2023/05/23 06:01:43;;;;;;;1999.90;999.90;;;14.90;99.90;;;;;;5052085;28;20234;-69
2023/05/23 06:04:09;;;;;;;1999.90;999.90;;;14.80;99.90;;;;;;5052042;28;20206;-69
2023/05/23 06:06:35;;;;;;;1999.90;999.90;;;14.80;99.90;;;;;;5052280;28;20405;-70
2023/05/23 06:09:00;;;;;;;1999.90;999.90;;;14.80;99.90;;;;;;5052065;28;21109;-70
2023/05/23 06:11:26;;;;;;;1999.90;999.90;;;14.70;99.90;;;;;;5051763;28;20195;-70
2023/05/23 06:13:52;;;;;;;1999.90;999.90;;;14.80;99.90;;;;;;5052092;28;20184;-69
2023/05/23 06:16:17;;;;;;;1999.90;999.90;;;14.80;99.90;;;;;;5051822;28;20254;-69
2023/05/23 06:18:43;;;;;;;1999.90;999.90;;;14.90;99.90;;;;;;5052035;28;20640;-69
2023/05/23 06:21:09;;;;;;;1999.90;999.90;;;14.90;99.90;;;;;;5051642;28;20194;-69
2023/05/23 06:23:35;;;;;;;1999.90;999.90;;;14.90;99.90;;;;;;5051920;28;20192;-69
2023/05/23 06:26:01;;;;;;;1999.90;999.90;;;14.90;99.90;;;;;;5051859;28;20436;-70
2023/05/23 06:28:27;;;;;;;1999.90;999.90;;;14.90;99.90;;;;;;5051935;28;20409;-69
2023/05/23 06:30:53;;;;;;;1999.90;999.90;;;15.00;99.90;;;;;;5051608;28;20191;-69
2023/05/23 06:33:19;;;;;;;1999.90;999.90;;;15.00;99.90;;;;;;5051889;28;20512;-69
2023/05/23 06:35:44;;;;;;;1999.90;999.90;;;15.00;99.90;;;;;;5051789;28;20170;-69
2023/05/23 06:38:10;;;;;;;1999.90;999.90;;;14.90;99.90;;;;;;5051789;28;20404;-69
2023/05/23 06:40:35;;;;;;;1999.90;999.90;;;14.90;99.90;;;;;;5051519;28;20234;-69
2023/05/23 06:43:01;;;;;;;1999.90;999.90;;;14.90;99.90;;;;;;5051506;28;20175;-70
2023/05/23 06:45:27;;;;;;;1999.90;999.90;;;14.80;99.90;;;;;;5051643;28;20286;-69
2023/05/23 06:47:52;;;;;;;1999.90;999.90;;;14.70;99.90;;;;;;5051650;28;20219;-70
2023/05/23 06:50:21;;;;;;;1999.90;999.90;;;14.80;99.90;;;;;;5051600;28;20192;-70
2023/05/23 06:52:46;;;;;;;1999.90;999.90;;;14.70;99.90;;;;;;5051437;28;20199;-70
2023/05/23 06:55:16;;;;;;;1999.90;999.90;;;14.70;99.90;;;;;;5051615;28;20437;-70
2023/05/23 06:57:43;;;;;;;1999.90;999.90;;;14.70;99.90;;;;;;5051594;28;20176;-70
2023/05/23 07:00:09;;;;;;;1999.90;999.90;;;14.70;99.90;;;;;;5051590;28;20495;-70
2023/05/23 07:02:35;;;;;;;1999.90;999.90;;;14.70;99.90;;;;;;5051237;28;20939;-70
2023/05/23 07:05:00;;;;;;;1999.90;999.90;;;14.70;99.90;;;;;;5051469;28;20462;-70
2023/05/23 07:07:26;;;;;;;1999.90;999.90;;;14.70;99.90;;;;;;5051535;28;20284;-70
2023/05/23 07:09:52;;;;;;;1999.90;999.90;;;14.60;99.90;;;;;;5051396;28;20287;-70
2023/05/23 07:12:17;;;;;;;1999.90;999.90;;;14.70;99.90;;;;;;5051211;28;20173;-70
2023/05/23 07:14:43;;;;;;;1999.90;999.90;;;14.60;99.90;;;;;;5051486;28;20178;-70
2023/05/23 07:17:08;;;;;;;1999.90;999.90;;;14.60;99.90;;;;;;5051392;28;20205;-70
2023/05/23 07:19:34;;;;;;;1999.90;999.90;;;14.60;99.90;;;;;;5051362;28;20214;-70
2023/05/23 07:22:00;;;;;;;1999.90;999.90;;;14.70;99.90;;;;;;5051060;28;20231;-70
2023/05/23 07:24:25;;;;;;;1999.90;999.90;;;14.60;99.90;;;;;;5051184;28;20192;-70
2023/05/23 07:26:51;;;;;;;1999.90;999.90;;;14.70;99.90;;;;;;5052528;28;20167;-70
2023/05/23 07:29:16;;;;;;;1999.90;999.90;;;14.70;99.90;;;;;;5054961;28;20570;-70
2023/05/23 07:31:42;;;;;;;1999.90;999.90;;;14.70;99.90;;;;;;5054746;28;20173;-70
2023/05/23 07:34:07;;;;;;;1999.90;999.90;;;14.60;99.90;;;;;;5054980;28;20172;-70
2023/05/23 07:36:34;;;;;;;1999.90;999.90;;;14.60;99.90;;;;;;5054757;28;20181;-70
2023/05/23 07:39:00;;;;;;;1999.90;999.90;;;14.60;99.90;;;;;;5054664;28;20180;-70
2023/05/23 07:41:26;;;;;;;1999.90;999.90;;;14.60;99.90;;;;;;5054739;28;20446;-70
2023/05/23 07:43:51;;;;;;;1999.90;999.90;;;14.60;99.90;;;;;;5054672;28;20538;-70
2023/05/23 07:46:17;;;;;;;1999.90;999.90;;;14.60;99.90;;;;;;5054738;28;20170;-70
2023/05/23 07:48:43;;;;;;;1999.90;999.90;;;14.60;99.90;;;;;;5054644;28;20164;-70
2023/05/23 07:51:08;;;;;;;1999.90;999.90;;;14.60;99.90;;;;;;5054288;28;20235;-70
2023/05/23 07:53:38;;;;;;;1999.90;999.90;;;14.70;99.90;;;;;;5054526;28;20627;-70
2023/05/23 07:56:04;;;;;;;1999.90;999.90;;;14.80;99.90;;;;;;5054832;28;20568;-70
2023/05/23 07:58:30;;;;;;;1999.90;999.90;;;14.80;99.90;;;;;;5054571;28;20444;-70
2023/05/23 08:00:56;;;;;;;1999.90;999.90;;;14.70;99.90;;;;;;5053277;28;20433;-70
2023/05/23 08:03:22;;;;;;;1999.90;999.90;;;14.80;99.90;;;;;;5054155;28;20215;-70
2023/05/23 08:05:48;;;;;;;1999.90;999.90;;;14.60;99.90;;;;;;5054536;28;20427;-70
2023/05/23 08:08:14;;;;;;;1999.90;999.90;;;14.50;99.90;;;;;;5054348;28;20989;-70
2023/05/23 08:10:40;;;;;;;1999.90;999.90;;;14.50;99.90;;;;;;5054400;28;20433;-70
2023/05/23 08:13:05;;;;;;;1999.90;999.90;;;14.40;99.90;;;;;;5054189;28;20595;-70
2023/05/23 08:15:32;;;;;;;1999.90;999.90;;;14.20;99.90;;;;;;5054221;28;20258;-70
2023/05/23 08:17:59;;;;;;;1999.90;999.90;;;14.30;99.90;;;;;;5054201;28;20549;-70
2023/05/23 08:20:29;;;;;;;1999.90;999.90;;;14.30;99.90;;;;;;5053995;28;21005;-70
2023/05/23 08:23:00;;;;;;;1999.90;999.90;;;14.30;99.90;;;;;;5053719;28;20467;-70
2023/05/23 08:25:30;;;;;;;1999.90;999.90;;;14.30;99.90;;;;;;5054039;28;20993;-70
2023/05/23 08:27:57;;;;;;;1999.90;999.90;;;14.30;99.90;;;;;;5054086;28;20406;-70
2023/05/23 08:30:27;;;;;;;1999.90;999.90;;;14.30;99.90;;;;;;5053778;28;20422;-70
2023/05/23 08:32:54;;;;;;;1999.90;999.90;;;14.40;99.90;;;;;;5053599;28;20494;-70
2023/05/23 08:35:20;;;;;;;1999.90;999.90;;;14.40;99.90;;;;;;5053721;28;20413;-70
2023/05/23 08:37:46;;;;;;;1999.90;999.90;;;14.30;99.90;;;;;;5053748;28;20418;-70
2023/05/23 08:40:20;;;;;;;1999.90;999.90;;;14.20;99.90;;;;;;5053500;28;20458;-70
2023/05/23 08:42:47;;;;;;;1999.90;999.90;;;14.20;99.90;;;;;;5053496;28;20422;-70
2023/05/23 08:45:13;;;;;;;1999.90;999.90;;;14.00;99.90;;;;;;5053558;28;20543;-70
2023/05/23 08:47:42;;;;;;;1999.90;999.90;;;14.00;99.90;;;;;;5053549;28;20429;-70
2023/05/23 08:50:13;;;;;;;1999.90;999.90;;;14.00;99.90;;;;;;5053651;28;20429;-70
2023/05/23 08:52:56;;;;;;;1999.90;999.90;;;13.90;99.90;;;;;;5053240;28;20409;-70
2023/05/23 08:55:29;;;;;;;1999.90;999.90;;;14.00;99.90;;;;;;5053344;28;20475;-70
2023/05/23 08:57:58;;;;;;;1999.90;999.90;;;14.00;99.90;;;;;;5053378;28;20429;-70
2023/05/23 09:00:25;;;;;;;1999.90;999.90;;;14.00;99.90;;;;;;5053254;28;20996;-70
2023/05/23 09:02:51;;;;;;;1999.90;999.90;;;14.00;99.90;;;;;;5053004;28;20406;-70
2023/05/23 09:05:17;;;;;;;1999.90;999.90;;;14.00;99.90;;;;;;5053295;28;20465;-70
2023/05/23 09:07:46;;;;;;;1999.90;999.90;;;13.90;99.90;;;;;;5053302;28;20412;-70
2023/05/23 09:10:13;;;;;;;1999.90;999.90;;;13.80;99.90;;;;;;5052969;28;20432;-70
2023/05/23 09:12:39;;;;;;;1999.90;999.90;;;13.90;99.90;;;;;;5052752;28;20417;-69
2023/05/23 09:15:06;;;;;;;1999.90;999.90;;;13.90;99.90;;;;;;5053237;28;20414;-70
2023/05/23 09:17:32;;;;;;;1999.90;999.90;;;13.80;99.90;;;;;;5053113;28;20493;-70
2023/05/23 09:19:59;;;;;;;1999.90;999.90;;;13.80;99.90;;;;;;5052851;28;20874;-69
2023/05/23 09:22:26;;;;;;;1999.90;999.90;;;13.70;99.90;;;;;;5052662;28;20180;-69
2023/05/23 09:24:52;;;;;;;1999.90;999.90;;;13.50;99.90;;;;;;5052706;28;20544;-69
2023/05/23 09:27:18;;;;;;;1999.90;999.90;;;13.50;99.90;;;;;;5052707;28;20404;-69
2023/05/23 09:29:46;;;;;;;1999.90;999.90;;;13.40;99.90;;;;;;5052683;28;20872;-69
2023/05/23 09:32:19;;;;;;;1999.90;999.90;;;13.30;99.90;;;;;;5052477;28;20408;-69
2023/05/23 09:34:47;;;;;;;1999.90;999.90;;;13.40;99.90;;;;;;5052740;28;20983;-69
2023/05/23 09:37:17;;;;;;;1999.90;999.90;;;13.50;99.90;;;;;;5052637;28;20902;-69
2023/05/23 09:39:46;;;;;;;1999.90;999.90;;;13.50;99.90;;;;;;5052269;28;20458;-70
2023/05/23 09:42:23;;;;;;;1999.90;999.90;;;13.60;99.90;;;;;;5052466;28;20432;-69
2023/05/23 09:44:49;;;;;;;1999.90;999.90;;;13.70;99.90;;;;;;5052537;28;20457;-69
2023/05/23 09:47:16;;;;;;;1999.90;999.90;;;13.80;99.90;;;;;;5052559;28;20408;-70
2023/05/23 09:49:45;;;;;;;1999.90;999.90;;;13.90;99.90;;;;;;5051777;28;20467;-69
2023/05/23 09:52:12;;;;;;;1999.90;999.90;;;14.00;99.90;;;;;;5052096;28;20401;-69
2023/05/23 09:54:38;;;;;;;1999.90;999.90;;;14.20;99.90;;;;;;5052498;28;20791;-69
2023/05/23 09:57:09;;;;;;;1999.90;999.90;;;14.50;99.90;;;;;;5052288;28;20435;-69
2023/05/23 09:59:38;;;;;;;1999.90;999.90;;;14.70;99.90;;;;;;5052290;28;20441;-69
2023/05/23 10:02:15;;;;;;;1999.90;999.90;;;14.70;99.90;;;;;;5051911;28;20556;-69
2023/05/23 10:04:42;;;;;;;1999.90;999.90;;;14.70;99.90;;;;;;5052027;28;20451;-70
2023/05/23 10:07:18;;;;;;;1999.90;999.90;;;14.80;99.90;;;;;;5052177;28;20406;-70
2023/05/23 10:09:53;;;;;;;1999.90;999.90;;;14.90;99.90;;;;;;5052003;28;20920;-69
2023/05/23 10:12:31;;;;;;;1999.90;999.90;;;15.00;99.90;;;;;;5051858;28;20394;-69
2023/05/23 10:15:01;;;;;;;1999.90;999.90;;;15.00;99.90;;;;;;5052025;28;20402;-69
2023/05/23 10:18:03;;;;;;;1999.90;999.90;;;15.00;99.90;;;;;;5051939;28;20409;-69
2023/05/23 10:20:30;;;;;;;1999.90;999.90;;;14.90;99.90;;;;;;5051919;28;20432;-70
2023/05/23 10:23:00;;;;;;;1999.90;999.90;;;14.70;99.90;;;;;;5051678;28;20425;-70
2023/05/23 10:25:25;;;;;;;1999.90;999.90;;;14.60;99.90;;;;;;5051853;28;20572;-69
2023/05/23 10:27:57;;;;;;;1999.90;999.90;;;14.50;99.90;;;;;;5051853;28;20434;-70
2023/05/23 10:30:24;;;;;;;1999.90;999.90;;;14.60;99.90;;;;;;5051918;28;20426;-70
2023/05/23 10:32:50;;;;;;;1999.90;999.90;;;14.70;99.90;;;;;;5051686;28;20411;-69
2023/05/23 10:35:38;;;;;;;1999.90;999.90;;;14.80;99.90;;;;;;5051928;28;20449;-69
2023/05/23 10:38:34;;;;;;;1999.90;999.90;;;14.90;99.90;;;;;;5051704;28;20417;-70
2023/05/23 10:41:29;;;;;;;1999.90;999.90;;;15.10;99.90;;;;;;5052171;28;20438;-69
2023/05/23 10:44:01;;;;;;;1999.90;999.90;;;15.40;99.90;;;;;;5050543;28;20467;-70
2023/05/23 10:46:53;;;;;;;1999.90;999.90;;;15.70;99.90;;;;;;5051661;28;20433;-70
2023/05/23 10:49:20;;;;;;;1999.90;999.90;;;15.60;99.90;;;;;;5051741;28;20416;-70
2023/05/23 10:51:50;;;;;;;1999.90;999.90;;;15.50;99.90;;;;;;5051447;28;20417;-70
2023/05/23 10:54:19;;;;;;;1999.90;999.90;;;15.30;99.90;;;;;;5051588;28;20419;-70
2023/05/23 10:56:45;;;;;;;1999.90;999.90;;;15.50;99.90;;;;;;5051543;28;20934;-70
2023/05/23 10:59:21;;;;;;;1999.90;999.90;;;15.70;99.90;;;;;;5051821;28;20772;-69
2023/05/23 11:01:48;;;;;;;1999.90;999.90;;;15.90;99.90;;;;;;5054350;28;20513;-70
2023/05/23 11:04:14;;;;;;;1999.90;999.90;;;15.90;99.90;;;;;;5055589;28;20517;-70
2023/05/23 11:06:43;;;;;;;1999.90;999.90;;;16.10;99.90;;;;;;5055412;28;20967;-69
2023/05/23 11:09:12;;;;;;;1999.90;999.90;;;16.20;99.90;;;;;;5055408;28;20276;-70
2023/05/23 11:12:05;;;;;;;1999.90;999.90;;;16.50;99.90;;;;;;5055059;28;21044;-70
2023/05/23 11:14:32;;;;;;;1999.90;999.90;;;16.70;99.90;;;;;;5054361;28;20417;-70
2023/05/23 11:17:19;;;;;;;1999.90;999.90;;;16.70;99.90;;;;;;5055377;28;20823;-70
2023/05/23 11:20:05;;;;;;;1999.90;999.90;;;16.80;99.90;;;;;;5050855;28;20440;-70
2023/05/23 11:22:31;;;;;;;1999.90;999.90;;;17.40;99.90;;;;;;5055006;28;20403;-70
2023/05/23 11:24:57;;;;;;;1999.90;999.90;;;18.10;99.90;;;;;;5055232;28;20480;-70
2023/05/23 11:27:36;;;;;;;1999.90;999.90;;;18.80;99.90;;;;;;5055091;28;20400;-70
2023/05/23 11:30:12;;;;;;;1999.90;999.90;;;19.20;99.90;;;;;;5054954;28;20413;-69
2023/05/23 11:32:38;;;;;;;1999.90;999.90;;;19.10;99.90;;;;;;5055006;28;20512;-70
2023/05/23 11:35:10;;;;;;;1999.90;999.90;;;18.60;99.90;;;;;;5055088;28;20428;-70
2023/05/23 11:37:37;;;;;;;1999.90;999.90;;;18.60;99.90;;;;;;5054921;28;20908;-70
2023/05/23 11:40:26;;;;;;;1999.90;999.90;;;18.00;99.90;;;;;;5054661;28;20491;-70
2023/05/23 11:42:53;;;;;;;1999.90;999.90;;;17.20;99.90;;;;;;5054476;28;20409;-70
2023/05/23 11:45:19;;;;;;;1999.90;999.90;;;16.80;99.90;;;;;;5054797;28;20485;-70
2023/05/23 11:47:45;;;;;;;1999.90;999.90;;;16.60;99.90;;;;;;5054724;28;20440;-70
2023/05/23 11:50:10;;;;;;;1999.90;999.90;;;16.50;99.90;;;;;;5054655;28;20953;-70
2023/05/23 11:52:36;;;;;;;1999.90;999.90;;;16.50;99.90;;;;;;5054288;28;20168;-70
2023/05/23 11:55:01;;;;;;;1999.90;999.90;;;16.30;99.90;;;;;;5054562;28;20171;-69
2023/05/23 11:57:27;;;;;;;1999.90;999.90;;;16.40;99.90;;;;;;5054536;28;20197;-69
2023/05/23 11:59:53;;;;;;;1999.90;999.90;;;16.40;99.90;;;;;;5054431;28;20669;-70
2023/05/23 12:02:21;;;;;;;1999.90;999.90;;;16.40;99.90;;;;;;5054206;28;20253;-69